createdAt,value
2023-03-29T00:00:03.003Z,5.4
2023-03-29T00:15:02.264Z,5.2
2023-03-29T00:30:02.705Z,4.9
2023-03-29T00:45:03.200Z,4.8
2023-03-29T01:00:02.587Z,4.7
2023-03-29T01:15:03.057Z,4.6
2023-03-29T01:30:02.453Z,4.5
2023-03-29T01:45:03.037Z,4.5
2023-03-29T02:00:02.317Z,4.4
2023-03-29T02:15:02.941Z,4.3
2023-03-29T02:30:02.171Z,4.5
2023-03-29T02:45:02.650Z,4.4
2023-03-29T03:00:03.136Z,4.4
2023-03-29T03:15:02.506Z,4.6
2023-03-29T03:30:03.031Z,4.7
2023-03-29T03:45:02.361Z,4.5
2023-03-29T04:00:03.023Z,4.8
2023-03-29T04:15:02.257Z,4.8
2023-03-29T04:30:02.713Z,4.8
2023-03-29T04:45:03.145Z,4.9
2023-03-29T05:00:02.583Z,5.0
2023-03-29T05:15:03.077Z,5.1
2023-03-29T05:30:02.456Z,5.3
2023-03-29T05:45:03.072Z,5.4
2023-03-29T06:00:02.331Z,5.6
2023-03-29T06:15:02.761Z,5.8
2023-03-29T06:30:02.201Z,5.9
2023-03-29T06:45:02.613Z,5.9
2023-03-29T07:00:03.088Z,6.0
2023-03-29T07:15:02.500Z,6.0
2023-03-29T07:30:03.082Z,6.2
2023-03-29T07:45:02.417Z,6.2
2023-03-29T08:00:02.827Z,6.4
2023-03-29T08:15:02.254Z,6.6
2023-03-29T08:30:02.676Z,6.9
2023-03-29T08:45:03.133Z,7.3
2023-03-29T09:00:02.548Z,7.5
2023-03-29T09:15:03.090Z,7.8
2023-03-29T09:30:02.401Z,8.1
2023-03-29T09:45:03.084Z,8.5
2023-03-29T10:00:02.331Z,9.1
2023-03-29T10:15:02.764Z,9.5
2023-03-29T10:30:02.173Z,9.4
2023-03-29T10:45:02.644Z,9.5
2023-03-29T11:00:03.115Z,9.9
2023-03-29T11:15:02.489Z,10.3
2023-03-29T11:30:03.120Z,9.9
2023-03-29T11:45:02.348Z,9.8
2023-03-29T12:00:02.800Z,9.6
2023-03-29T12:15:03.246Z,9.4
2023-03-29T12:30:02.649Z,9.6
2023-03-29T12:45:03.136Z,10.2
2023-03-29T13:00:02.548Z,10.3
2023-03-29T13:15:03.137Z,10.7
2023-03-29T13:30:02.427Z,10.6
2023-03-29T13:45:02.890Z,10.2
2023-03-29T14:00:02.359Z,10.4
2023-03-29T14:15:02.755Z,10.7
2023-03-29T14:30:02.228Z,10.8
2023-03-29T14:45:02.625Z,10.9
2023-03-29T15:00:03.201Z,11.1
2023-03-29T15:15:02.546Z,11.1
2023-03-29T15:30:03.220Z,11.4
2023-03-29T15:45:02.406Z,11.5
2023-03-29T16:00:02.843Z,11.6
2023-03-29T16:15:02.274Z,11.7
2023-03-29T16:30:02.703Z,11.7
2023-03-29T16:45:03.196Z,11.7
2023-03-29T17:00:02.583Z,11.5
2023-03-29T17:15:03.168Z,11.2
2023-03-29T17:30:02.443Z,10.9
2023-03-29T17:45:02.916Z,10.6
2023-03-29T18:00:02.333Z,10.4
2023-03-29T18:15:02.811Z,10.2
2023-03-29T18:30:02.228Z,10.0
2023-03-29T18:45:02.713Z,10.0
2023-03-29T19:00:03.199Z,9.8
2023-03-29T19:15:02.571Z,10.0
2023-03-29T19:30:03.205Z,9.9
2023-03-29T19:45:02.441Z,9.8
2023-03-29T20:00:02.862Z,9.9
2023-03-29T20:15:02.279Z,9.8
2023-03-29T20:30:02.718Z,9.8
2023-03-29T20:45:03.217Z,9.7
2023-03-29T21:00:02.555Z,9.5
2023-03-29T21:15:03.262Z,9.5
2023-03-29T21:30:02.477Z,9.3
2023-03-29T21:45:02.907Z,9.1
2023-03-29T22:00:02.418Z,8.9
2023-03-29T22:15:02.760Z,8.5
2023-03-29T22:30:02.303Z,8.3
2023-03-29T22:45:02.656Z,8.3
2023-03-29T23:00:03.246Z,8.1
2023-03-29T23:15:02.550Z,8.3
2023-03-29T23:30:03.217Z,7.9
2023-03-29T23:45:02.448Z,7.6
